^^
Station Historical Data
Daily Summary for September 10, 2017 Units:  Both    English   Metric
« Previous Day
Next Day »
Daily Weekly Monthly Yearly Custom
  High: Low: Average:
Temperature: TemperatureF °F /  -17.8 °C 69.4 °F /  20.8 °C 77.8 °F /  25.4 °C
Dew Point: DewpointF °F /  -17.8 °C 11.5 °F /  -11.4 °C 18.3 °F /  -7.6 °C
Humidity: Humidity% 9% 11%
Wind Speed: WindSpeedMPHmph /  0km/h - 1.7mph /  2.7km/h
Wind Gust: WindSpeedGustMPHmph /  0km/h - -
Wind- - SSE
Pressure: PressureIn in /  0 hPa 30.09 in /  1018.8 hPa -
Precipitation: 0.00 in /  0 mm    
Historical Graphs
 
 
Tabular Data for September 10, 2017
Time Temperature Dew Point Pressure Wind Wind Speed Wind Gust Humidity Rainfall Rate (Hourly) solar Conditions
TemperatureF °F /  -17.8 °C DewpointF °F /  -17.8 °C PressureInin /  0hPa Calm     Humidity% HourlyPrecipInin /  0mm SolarRadiationWatts/m^2 W/m2 Conditions
00:03 72.5 °F /  22.5 °C 17.1 °F /  -8.3 °C 30.22in /  1023.2hPa Calm   3.0mph /  4.8km/h 12% 0.00in /  0mm 0.0 W/m2
00:09 72.3 °F /  22.4 °C 16.9 °F /  -8.4 °C 30.21in /  1022.9hPa Calm   2.0mph /  3.2km/h 12% 0.00in /  0mm 0.0 W/m2
00:15 72.3 °F /  22.4 °C 18.7 °F /  -7.4 °C 30.21in /  1022.9hPa Calm   1.0mph /  1.6km/h 13% 0.00in /  0mm 0.0 W/m2
00:21 72.1 °F /  22.3 °C 16.7 °F /  -8.5 °C 30.21in /  1022.9hPa Calm   1.0mph /  1.6km/h 12% 0.00in /  0mm 0.0 W/m2
00:27 72.1 °F /  22.3 °C 16.7 °F /  -8.5 °C 30.21in /  1022.9hPa Calm   4.0mph /  6.4km/h 12% 0.00in /  0mm 0.0 W/m2
00:33 72.1 °F /  22.3 °C 16.7 °F /  -8.5 °C 30.21in /  1022.9hPa SSE 2.0mph /  3.2km/h 4.0mph /  6.4km/h 12% 0.00in /  0mm 0.0 W/m2
00:39 72.7 °F /  22.6 °C 17.1 °F /  -8.3 °C 30.21in /  1022.9hPa SSE 6.9mph /  11.1km/h 8.0mph /  12.9km/h 12% 0.00in /  0mm 0.0 W/m2
00:45 73.2 °F /  22.9 °C 15.6 °F /  -9.1 °C 30.21in /  1022.9hPa SSE 4.0mph /  6.4km/h 8.0mph /  12.9km/h 11% 0.00in /  0mm 0.0 W/m2
00:51 73.8 °F /  23.2 °C 16.0 °F /  -8.9 °C 30.21in /  1022.9hPa SE 0.9mph /  1.4km/h 5.0mph /  8km/h 11% 0.00in /  0mm 0.0 W/m2
00:57 73.9 °F /  23.3 °C 16.2 °F /  -8.8 °C 30.21in /  1022.9hPa SSE 4.0mph /  6.4km/h 9.0mph /  14.5km/h 11% 0.00in /  0mm 0.0 W/m2
01:03 74.1 °F /  23.4 °C 16.2 °F /  -8.8 °C 30.21in /  1022.9hPa ESE 0.9mph /  1.4km/h 8.0mph /  12.9km/h 11% 0.00in /  0mm 0.0 W/m2
01:09 74.1 °F /  23.4 °C 14.0 °F /  -10 °C 30.20in /  1022.6hPa SSE 8.9mph /  14.3km/h 9.0mph /  14.5km/h 10% 0.00in /  0mm 0.0 W/m2
01:15 74.1 °F /  23.4 °C 14.0 °F /  -10 °C 30.20in /  1022.6hPa South 0.9mph /  1.4km/h 6.0mph /  9.7km/h 10% 0.00in /  0mm 0.0 W/m2
01:21 74.1 °F /  23.4 °C 14.0 °F /  -10 °C 30.20in /  1022.6hPa SE 2.0mph /  3.2km/h 6.0mph /  9.7km/h 10% 0.00in /  0mm 0.0 W/m2
01:27 73.9 °F /  23.3 °C 14.0 °F /  -10 °C 30.21in /  1022.9hPa SSE 2.9mph /  4.7km/h 7.0mph /  11.3km/h 10% 0.00in /  0mm 0.0 W/m2
01:33 73.8 °F /  23.2 °C 13.8 °F /  -10.1 °C 30.20in /  1022.6hPa Calm   5.0mph /  8km/h 10% 0.00in /  0mm 0.0 W/m2
01:39 73.8 °F /  23.2 °C 13.8 °F /  -10.1 °C 30.20in /  1022.6hPa Calm   3.0mph /  4.8km/h 10% 0.00in /  0mm 0.0 W/m2
01:45 73.4 °F /  23 °C 15.6 °F /  -9.1 °C 30.20in /  1022.6hPa Calm   3.0mph /  4.8km/h 11% 0.00in /  0mm 0.0 W/m2
01:51 73.2 °F /  22.9 °C 15.6 °F /  -9.1 °C 30.20in /  1022.6hPa South 0.9mph /  1.4km/h 4.0mph /  6.4km/h 11% 0.00in /  0mm 0.0 W/m2
01:57 72.9 °F /  22.7 °C 15.3 °F /  -9.3 °C 30.20in /  1022.6hPa Calm   6.0mph /  9.7km/h 11% 0.00in /  0mm 0.0 W/m2
02:03 72.7 °F /  22.6 °C 15.1 °F /  -9.4 °C 30.20in /  1022.6hPa Calm   2.0mph /  3.2km/h 11% 0.00in /  0mm 0.0 W/m2
02:09 72.3 °F /  22.4 °C 14.9 °F /  -9.5 °C 30.19in /  1022.2hPa Calm   3.0mph /  4.8km/h 11% 0.00in /  0mm 0.0 W/m2
02:15 72.1 °F /  22.3 °C 14.7 °F /  -9.6 °C 30.19in /  1022.2hPa Calm   4.0mph /  6.4km/h 11% 0.00in /  0mm 0.0 W/m2
02:21 72.1 °F /  22.3 °C 14.7 °F /  -9.6 °C 30.19in /  1022.2hPa Calm   2.0mph /  3.2km/h 11% 0.00in /  0mm 0.0 W/m2
02:27 72.0 °F /  22.2 °C 14.5 °F /  -9.7 °C 30.19in /  1022.2hPa Calm     11% 0.00in /  0mm 0.0 W/m2
02:33 71.4 °F /  21.9 °C 14.2 °F /  -9.9 °C 30.19in /  1022.2hPa Calm     11% 0.00in /  0mm 0.0 W/m2
02:39 71.1 °F /  21.7 °C 15.8 °F /  -9 °C 30.19in /  1022.2hPa Calm     12% 0.00in /  0mm 0.0 W/m2
02:45 70.5 °F /  21.4 °C 17.2 °F /  -8.2 °C 30.19in /  1022.2hPa Calm     13% 0.00in /  0mm 0.0 W/m2
02:51 70.2 °F /  21.2 °C 15.1 °F /  -9.4 °C 30.19in /  1022.2hPa Calm   1.0mph /  1.6km/h 12% 0.00in /  0mm 0.0 W/m2
02:57 70.2 °F /  21.2 °C 15.1 °F /  -9.4 °C 30.19in /  1022.2hPa Calm   1.0mph /  1.6km/h 12% 0.00in /  0mm 0.0 W/m2
03:03 70.5 °F /  21.4 °C 15.4 °F /  -9.2 °C 30.19in /  1022.2hPa Calm   1.0mph /  1.6km/h 12% 0.00in /  0mm 0.0 W/m2
03:09 70.9 °F /  21.6 °C 13.8 °F /  -10.1 °C 30.19in /  1022.2hPa SE 2.9mph /  4.7km/h 4.0mph /  6.4km/h 11% 0.00in /  0mm 0.0 W/m2
03:15 71.2 °F /  21.8 °C 14.0 °F /  -10 °C 30.19in /  1022.2hPa Calm   2.0mph /  3.2km/h 11% 0.00in /  0mm 0.0 W/m2
03:21 71.2 °F /  21.8 °C 14.0 °F /  -10 °C 30.18in /  1021.9hPa Calm     11% 0.00in /  0mm 0.0 W/m2
03:27 71.2 °F /  21.8 °C 14.0 °F /  -10 °C 30.18in /  1021.9hPa Calm   4.0mph /  6.4km/h 11% 0.00in /  0mm 0.0 W/m2
03:33 71.2 °F /  21.8 °C 14.0 °F /  -10 °C 30.18in /  1021.9hPa SE 2.9mph /  4.7km/h 5.0mph /  8km/h 11% 0.00in /  0mm 0.0 W/m2
03:39 71.4 °F /  21.9 °C 14.2 °F /  -9.9 °C 30.18in /  1021.9hPa SSE 0.9mph /  1.4km/h 3.0mph /  4.8km/h 11% 0.00in /  0mm 0.0 W/m2
03:45 71.4 °F /  21.9 °C 14.2 °F /  -9.9 °C 30.18in /  1021.9hPa Calm   9.0mph /  14.5km/h 11% 0.00in /  0mm 0.0 W/m2
03:51 71.8 °F /  22.1 °C 14.4 °F /  -9.8 °C 30.18in /  1021.9hPa SE 2.0mph /  3.2km/h 6.0mph /  9.7km/h 11% 0.00in /  0mm 0.0 W/m2
03:57 72.0 °F /  22.2 °C 14.5 °F /  -9.7 °C 30.17in /  1021.6hPa Calm   5.0mph /  8km/h 11% 0.00in /  0mm 0.0 W/m2
04:03 72.0 °F /  22.2 °C 12.4 °F /  -10.9 °C 30.17in /  1021.6hPa SSE 0.9mph /  1.4km/h 6.0mph /  9.7km/h 10% 0.00in /  0mm 0.0 W/m2
04:09 72.0 °F /  22.2 °C 12.4 °F /  -10.9 °C 30.17in /  1021.6hPa East 2.9mph /  4.7km/h 8.0mph /  12.9km/h 10% 0.00in /  0mm 0.0 W/m2
04:15 72.1 °F /  22.3 °C 12.6 °F /  -10.8 °C 30.17in /  1021.6hPa Calm   4.0mph /  6.4km/h 10% 0.00in /  0mm 0.0 W/m2
04:21 72.1 °F /  22.3 °C 12.6 °F /  -10.8 °C 30.17in /  1021.6hPa Calm   5.0mph /  8km/h 10% 0.00in /  0mm 0.0 W/m2
04:27 72.0 °F /  22.2 °C 12.4 °F /  -10.9 °C 30.17in /  1021.6hPa SE 0.9mph /  1.4km/h 5.0mph /  8km/h 10% 0.00in /  0mm 0.0 W/m2
04:33 72.0 °F /  22.2 °C 12.4 °F /  -10.9 °C 30.17in /  1021.6hPa SSE 0.9mph /  1.4km/h 4.0mph /  6.4km/h 10% 0.00in /  0mm 0.0 W/m2
04:39 72.0 °F /  22.2 °C 14.5 °F /  -9.7 °C 30.17in /  1021.6hPa Calm   2.0mph /  3.2km/h 11% 0.00in /  0mm 0.0 W/m2
04:45 71.6 °F /  22 °C 12.2 °F /  -11 °C 30.17in /  1021.6hPa SSE 0.9mph /  1.4km/h 11.0mph /  17.7km/h 10% 0.00in /  0mm 0.0 W/m2
04:51 71.6 °F /  22 °C 12.2 °F /  -11 °C 30.18in /  1021.9hPa SE 6.9mph /  11.1km/h 9.0mph /  14.5km/h 10% 0.00in /  0mm 0.0 W/m2
04:57 71.8 °F /  22.1 °C 12.2 °F /  -11 °C 30.18in /  1021.9hPa SSW 0.9mph /  1.4km/h 6.0mph /  9.7km/h 10% 0.00in /  0mm 0.0 W/m2
05:03 71.8 °F /  22.1 °C 12.2 °F /  -11 °C 30.18in /  1021.9hPa SE 0.9mph /  1.4km/h 8.0mph /  12.9km/h 10% 0.00in /  0mm 0.0 W/m2
05:09 71.8 °F /  22.1 °C 12.2 °F /  -11 °C 30.18in /  1021.9hPa South 2.9mph /  4.7km/h 8.0mph /  12.9km/h 10% 0.00in /  0mm 0.0 W/m2
05:15 71.8 °F /  22.1 °C 12.2 °F /  -11 °C 30.18in /  1021.9hPa Calm   10.0mph /  16.1km/h 10% 0.00in /  0mm 0.0 W/m2
05:21 71.8 °F /  22.1 °C 12.2 °F /  -11 °C 30.18in /  1021.9hPa SE 2.9mph /  4.7km/h 5.0mph /  8km/h 10% 0.00in /  0mm 0.0 W/m2
05:27 71.8 °F /  22.1 °C 12.2 °F /  -11 °C 30.18in /  1021.9hPa SSE 4.0mph /  6.4km/h 9.0mph /  14.5km/h 10% 0.00in /  0mm 0.0 W/m2
05:33 71.8 °F /  22.1 °C 12.2 °F /  -11 °C 30.18in /  1021.9hPa SSE 4.9mph /  7.9km/h 10.0mph /  16.1km/h 10% 0.00in /  0mm 0.0 W/m2
05:39 72.0 °F /  22.2 °C 12.4 °F /  -10.9 °C 30.18in /  1021.9hPa SSE 4.0mph /  6.4km/h 12.0mph /  19.3km/h 10% 0.00in /  0mm 0.0 W/m2
05:45 72.0 °F /  22.2 °C 12.4 °F /  -10.9 °C 30.18in /  1021.9hPa Calm   9.0mph /  14.5km/h 10% 0.00in /  0mm 0.0 W/m2
05:51 72.1 °F /  22.3 °C 12.6 °F /  -10.8 °C 30.18in /  1021.9hPa SE 0.9mph /  1.4km/h 4.0mph /  6.4km/h 10% 0.00in /  0mm 0.0 W/m2
05:57 72.0 °F /  22.2 °C 12.4 °F /  -10.9 °C 30.18in /  1021.9hPa Calm   7.0mph /  11.3km/h 10% 0.00in /  0mm 0.0 W/m2
06:03 72.0 °F /  22.2 °C 12.4 °F /  -10.9 °C 30.18in /  1021.9hPa SSE 2.0mph /  3.2km/h 7.0mph /  11.3km/h 10% 0.00in /  0mm 0.0 W/m2
06:09 72.0 °F /  22.2 °C 12.4 °F /  -10.9 °C 30.19in /  1022.2hPa Calm   5.0mph /  8km/h 10% 0.00in /  0mm 0.0 W/m2
06:15 71.8 °F /  22.1 °C 12.2 °F /  -11 °C 30.19in /  1022.2hPa South 4.9mph /  7.9km/h 10.0mph /  16.1km/h 10% 0.00in /  0mm 0.0 W/m2
06:21 71.6 °F /  22 °C 12.2 °F /  -11 °C 30.19in /  1022.2hPa SSE 0.9mph /  1.4km/h 5.0mph /  8km/h 10% 0.00in /  0mm 0.0 W/m2
06:27 71.4 °F /  21.9 °C 12.0 °F /  -11.1 °C 30.19in /  1022.2hPa Calm   4.0mph /  6.4km/h 10% 0.00in /  0mm 0.0 W/m2
06:33 71.2 °F /  21.8 °C 11.8 °F /  -11.2 °C 30.19in /  1022.2hPa Calm   4.0mph /  6.4km/h 10% 0.00in /  0mm 0.0 W/m2
06:39 71.1 °F /  21.7 °C 11.7 °F /  -11.3 °C 30.19in /  1022.2hPa Calm   5.0mph /  8km/h 10% 0.00in /  0mm 0.0 W/m2
06:45 70.9 °F /  21.6 °C 11.7 °F /  -11.3 °C 30.19in /  1022.2hPa Calm   8.0mph /  12.9km/h 10% 0.00in /  0mm 0.0 W/m2
06:51 70.7 °F /  21.5 °C 11.5 °F /  -11.4 °C 30.19in /  1022.2hPa South 6.0mph /  9.7km/h 7.0mph /  11.3km/h 10% 0.00in /  0mm 0.0 W/m2
06:57 70.5 °F /  21.4 °C 13.5 °F /  -10.3 °C 30.19in /  1022.2hPa Calm   3.0mph /  4.8km/h 11% 0.00in /  0mm 0.0 W/m2
07:03 70.3 °F /  21.3 °C 13.3 °F /  -10.4 °C 30.19in /  1022.2hPa Calm   1.0mph /  1.6km/h 11% 0.00in /  0mm 5.0 W/m2
07:09 70.2 °F /  21.2 °C 13.1 °F /  -10.5 °C 30.20in /  1022.6hPa Calm   5.0mph /  8km/h 11% 0.00in /  0mm 9.0 W/m2
07:15 70.2 °F /  21.2 °C 13.1 °F /  -10.5 °C 30.20in /  1022.6hPa Calm   5.0mph /  8km/h 11% 0.00in /  0mm 12.0 W/m2
07:21 70.0 °F /  21.1 °C 13.1 °F /  -10.5 °C 30.20in /  1022.6hPa Calm     11% 0.00in /  0mm 14.0 W/m2
07:27 69.6 °F /  20.9 °C 14.7 °F /  -9.6 °C 30.21in /  1022.9hPa Calm   1.0mph /  1.6km/h 12% 0.00in /  0mm 19.0 W/m2
07:33 69.4 °F /  20.8 °C 14.5 °F /  -9.7 °C 30.21in /  1022.9hPa Calm   6.0mph /  9.7km/h 12% 0.00in /  0mm 25.0 W/m2
07:39 69.4 °F /  20.8 °C 14.5 °F /  -9.7 °C 30.21in /  1022.9hPa Calm   2.0mph /  3.2km/h 12% 0.00in /  0mm 30.0 W/m2
07:45 69.6 °F /  20.9 °C 12.7 °F /  -10.7 °C 30.21in /  1022.9hPa Calm   4.0mph /  6.4km/h 11% 0.00in /  0mm 33.0 W/m2
07:51 69.6 °F /  20.9 °C 14.7 °F /  -9.6 °C 30.22in /  1023.2hPa Calm     12% 0.00in /  0mm 35.0 W/m2
07:57 69.8 °F /  21 °C 14.9 °F /  -9.5 °C 30.22in /  1023.2hPa Calm   2.0mph /  3.2km/h 12% 0.00in /  0mm 37.0 W/m2
08:03 69.8 °F /  21 °C 14.9 °F /  -9.5 °C 30.22in /  1023.2hPa Calm   1.0mph /  1.6km/h 12% 0.00in /  0mm 40.0 W/m2
08:09 69.8 °F /  21 °C 14.9 °F /  -9.5 °C 30.22in /  1023.2hPa Calm   1.0mph /  1.6km/h 12% 0.00in /  0mm 49.0 W/m2
08:15 69.6 °F /  20.9 °C 16.5 °F /  -8.6 °C 30.22in /  1023.2hPa Calm     13% 0.00in /  0mm 60.0 W/m2
08:21 69.8 °F /  21 °C 14.9 °F /  -9.5 °C 30.22in /  1023.2hPa Calm   3.0mph /  4.8km/h 12% 0.00in /  0mm 62.0 W/m2
08:27 70.2 °F /  21.2 °C 15.1 °F /  -9.4 °C 30.22in /  1023.2hPa Calm     12% 0.00in /  0mm 72.0 W/m2
08:33 70.7 °F /  21.5 °C 15.6 °F /  -9.1 °C 30.22in /  1023.2hPa Calm     12% 0.00in /  0mm 76.0 W/m2
08:39 71.6 °F /  22 °C 14.4 °F /  -9.8 °C 30.22in /  1023.2hPa Calm   6.0mph /  9.7km/h 11% 0.00in /  0mm 79.0 W/m2
08:45 72.7 °F /  22.6 °C 15.1 °F /  -9.4 °C 30.22in /  1023.2hPa South 2.0mph /  3.2km/h 7.0mph /  11.3km/h 11% 0.00in /  0mm 83.0 W/m2
08:52 73.6 °F /  23.1 °C 15.8 °F /  -9 °C 30.22in /  1023.2hPa SE 4.0mph /  6.4km/h 9.0mph /  14.5km/h 11% 0.00in /  0mm 86.0 W/m2
08:58 74.1 °F /  23.4 °C 16.2 °F /  -8.8 °C 30.22in /  1023.2hPa East 2.9mph /  4.7km/h 7.0mph /  11.3km/h 11% 0.00in /  0mm 88.0 W/m2
09:04 74.8 °F /  23.8 °C 14.5 °F /  -9.7 °C 30.22in /  1023.2hPa East 2.9mph /  4.7km/h 10.0mph /  16.1km/h 10% 0.00in /  0mm 91.0 W/m2
09:10 75.4 °F /  24.1 °C 15.1 °F /  -9.4 °C 30.22in /  1023.2hPa SE 4.9mph /  7.9km/h 12.0mph /  19.3km/h 10% 0.00in /  0mm 95.0 W/m2
09:16 75.7 °F /  24.3 °C 12.9 °F /  -10.6 °C 30.23in /  1023.6hPa Calm   11.0mph /  17.7km/h 9% 0.00in /  0mm 98.0 W/m2
09:22 76.3 °F /  24.6 °C 13.3 °F /  -10.4 °C 30.22in /  1023.2hPa SE 11.0mph /  17.7km/h 14.0mph /  22.5km/h 9% 0.00in /  0mm 100.0 W/m2
09:28 76.6 °F /  24.8 °C 13.6 °F /  -10.2 °C 30.22in /  1023.2hPa East 4.9mph /  7.9km/h 16.0mph /  25.7km/h 9% 0.00in /  0mm 104.0 W/m2
09:34 76.8 °F /  24.9 °C 13.6 °F /  -10.2 °C 30.23in /  1023.6hPa SE 6.0mph /  9.7km/h 13.0mph /  20.9km/h 9% 0.00in /  0mm 111.0 W/m2
09:40 77.2 °F /  25.1 °C 14.0 °F /  -10 °C 30.23in /  1023.6hPa East 6.0mph /  9.7km/h 12.0mph /  19.3km/h 9% 0.00in /  0mm 476.0 W/m2
09:46 77.5 °F /  25.3 °C 14.2 °F /  -9.9 °C 30.22in /  1023.2hPa ESE 8.9mph /  14.3km/h 16.0mph /  25.7km/h 9% 0.00in /  0mm 501.0 W/m2
09:52 78.1 °F /  25.6 °C 14.7 °F /  -9.6 °C 30.22in /  1023.2hPa ESE 2.0mph /  3.2km/h 10.0mph /  16.1km/h 9% 0.00in /  0mm 522.0 W/m2
09:58 78.4 °F /  25.8 °C 14.9 °F /  -9.5 °C 30.22in /  1023.2hPa East 4.0mph /  6.4km/h 9.0mph /  14.5km/h 9% 0.00in /  0mm 538.0 W/m2
10:04 79.0 °F /  26.1 °C 15.3 °F /  -9.3 °C 30.22in /  1023.2hPa ESE 6.9mph /  11.1km/h 13.0mph /  20.9km/h 9% 0.00in /  0mm 557.0 W/m2
10:10 79.5 °F /  26.4 °C 15.8 °F /  -9 °C 30.22in /  1023.2hPa SSE 11.0mph /  17.7km/h 11.0mph /  17.7km/h 9% 0.00in /  0mm 577.0 W/m2
10:16 79.9 °F /  26.6 °C 16.0 °F /  -8.9 °C 30.22in /  1023.2hPa SSE 4.9mph /  7.9km/h 8.0mph /  12.9km/h 9% 0.00in /  0mm 594.0 W/m2
10:22 80.2 °F /  26.8 °C 16.3 °F /  -8.7 °C 30.22in /  1023.2hPa East 8.9mph /  14.3km/h 12.0mph /  19.3km/h 9% 0.00in /  0mm 608.0 W/m2
10:28 80.6 °F /  27 °C 16.5 °F /  -8.6 °C 30.22in /  1023.2hPa ESE 4.0mph /  6.4km/h 12.0mph /  19.3km/h 9% 0.00in /  0mm 626.0 W/m2
10:34 81.1 °F /  27.3 °C 16.9 °F /  -8.4 °C 30.22in /  1023.2hPa SE 6.9mph /  11.1km/h 10.0mph /  16.1km/h 9% 0.00in /  0mm 645.0 W/m2
10:40 81.7 °F /  27.6 °C 17.4 °F /  -8.1 °C 30.22in /  1023.2hPa SE 6.0mph /  9.7km/h 11.0mph /  17.7km/h 9% 0.00in /  0mm 657.0 W/m2
10:46 81.9 °F /  27.7 °C 17.4 °F /  -8.1 °C 30.22in /  1023.2hPa SSE 2.0mph /  3.2km/h 13.0mph /  20.9km/h 9% 0.00in /  0mm 677.0 W/m2
10:52 82.0 °F /  27.8 °C 17.6 °F /  -8 °C 30.21in /  1022.9hPa SSE 2.0mph /  3.2km/h 10.0mph /  16.1km/h 9% 0.00in /  0mm 689.0 W/m2
10:59 82.6 °F /  28.1 °C 20.5 °F /  -6.4 °C 30.21in /  1022.9hPa SSE 4.9mph /  7.9km/h 10.0mph /  16.1km/h 10% 0.00in /  0mm 705.0 W/m2
11:04 82.9 °F /  28.3 °C 18.3 °F /  -7.6 °C 30.21in /  1022.9hPa SSE 0.9mph /  1.4km/h 13.0mph /  20.9km/h 9% 0.00in /  0mm 717.0 W/m2
11:10 83.1 °F /  28.4 °C 18.5 °F /  -7.5 °C 30.21in /  1022.9hPa South 8.1mph /  13km/h 10.0mph /  16.1km/h 9% 0.00in /  0mm 731.0 W/m2
11:16 83.1 °F /  28.4 °C 20.8 °F /  -6.2 °C 30.20in /  1022.6hPa South 2.0mph /  3.2km/h 7.0mph /  11.3km/h 10% 0.00in /  0mm 742.0 W/m2
11:22 83.7 °F /  28.7 °C 21.4 °F /  -5.9 °C 30.20in /  1022.6hPa SSE 4.0mph /  6.4km/h 6.0mph /  9.7km/h 10% 0.00in /  0mm 752.0 W/m2
11:28 84.4 °F /  29.1 °C 19.4 °F /  -7 °C 30.20in /  1022.6hPa SE 2.9mph /  4.7km/h 5.0mph /  8km/h 9% 0.00in /  0mm 763.0 W/m2
11:35 84.7 °F /  29.3 °C 19.6 °F /  -6.9 °C 30.20in /  1022.6hPa East 4.9mph /  7.9km/h 9.0mph /  14.5km/h 9% 0.00in /  0mm 768.0 W/m2
11:41 84.9 °F /  29.4 °C 19.8 °F /  -6.8 °C 30.19in /  1022.2hPa Calm   5.0mph /  8km/h 9% 0.00in /  0mm 777.0 W/m2
11:47 85.6 °F /  29.8 °C 20.3 °F /  -6.5 °C 30.19in /  1022.2hPa NNE 0.9mph /  1.4km/h 8.0mph /  12.9km/h 9% 0.00in /  0mm 784.0 W/m2
11:53 86.2 °F /  30.1 °C 23.2 °F /  -4.9 °C 30.19in /  1022.2hPa ESE 6.9mph /  11.1km/h 8.0mph /  12.9km/h 10% 0.00in /  0mm 795.0 W/m2
11:59 86.0 °F /  30 °C 20.7 °F /  -6.3 °C 30.19in /  1022.2hPa ESE 4.0mph /  6.4km/h 4.0mph /  6.4km/h 9% 0.00in /  0mm 802.0 W/m2
12:05 85.8 °F /  29.9 °C 23.0 °F /  -5 °C 30.18in /  1021.9hPa SE 0.9mph /  1.4km/h 2.0mph /  3.2km/h 10% 0.00in /  0mm 809.0 W/m2
12:11 86.0 °F /  30 °C 20.7 °F /  -6.3 °C 30.18in /  1021.9hPa NNE 4.9mph /  7.9km/h 9.0mph /  14.5km/h 9% 0.00in /  0mm 816.0 W/m2
12:17 86.2 °F /  30.1 °C 23.2 °F /  -4.9 °C 30.18in /  1021.9hPa SE 2.0mph /  3.2km/h 10.0mph /  16.1km/h 10% 0.00in /  0mm 819.0 W/m2
12:23 86.4 °F /  30.2 °C 20.8 °F /  -6.2 °C 30.17in /  1021.6hPa ESE 6.0mph /  9.7km/h 10.0mph /  16.1km/h 9% 0.00in /  0mm 817.0 W/m2
12:29 86.4 °F /  30.2 °C 23.4 °F /  -4.8 °C 30.17in /  1021.6hPa Calm   5.0mph /  8km/h 10% 0.00in /  0mm 821.0 W/m2
12:35 86.4 °F /  30.2 °C 20.8 °F /  -6.2 °C 30.17in /  1021.6hPa WSW 2.0mph /  3.2km/h 6.0mph /  9.7km/h 9% 0.00in /  0mm 824.0 W/m2
12:41 86.0 °F /  30 °C 23.2 °F /  -4.9 °C 30.16in /  1021.2hPa Calm   5.0mph /  8km/h 10% 0.00in /  0mm 819.0 W/m2
12:47 86.5 °F /  30.3 °C 21.0 °F /  -6.1 °C 30.16in /  1021.2hPa NE 2.0mph /  3.2km/h 5.0mph /  8km/h 9% 0.00in /  0mm 824.0 W/m2
12:53 87.1 °F /  30.6 °C 21.4 °F /  -5.9 °C 30.16in /  1021.2hPa Calm   1.0mph /  1.6km/h 9% 0.00in /  0mm 824.0 W/m2
12:59 88.0 °F /  31.1 °C 22.1 °F /  -5.5 °C 30.15in /  1020.9hPa Calm   4.0mph /  6.4km/h 9% 0.00in /  0mm 821.0 W/m2
13:06 88.3 °F /  31.3 °C 22.3 °F /  -5.4 °C 30.15in /  1020.9hPa SE 2.9mph /  4.7km/h 6.0mph /  9.7km/h 9% 0.00in /  0mm 817.0 W/m2
13:12 88.5 °F /  31.4 °C 22.5 °F /  -5.3 °C 30.15in /  1020.9hPa Calm   2.0mph /  3.2km/h 9% 0.00in /  0mm 814.0 W/m2
13:18 89.1 °F /  31.7 °C 22.8 °F /  -5.1 °C 30.14in /  1020.5hPa SE 2.0mph /  3.2km/h 6.0mph /  9.7km/h 9% 0.00in /  0mm 807.0 W/m2
13:24 89.1 °F /  31.7 °C 22.8 °F /  -5.1 °C 30.14in /  1020.5hPa SE 4.9mph /  7.9km/h 9.0mph /  14.5km/h 9% 0.00in /  0mm 800.0 W/m2
13:30 88.9 °F /  31.6 °C 22.8 °F /  -5.1 °C 30.14in /  1020.5hPa Calm   4.0mph /  6.4km/h 9% 0.00in /  0mm 795.0 W/m2
13:36 88.7 °F /  31.5 °C 22.6 °F /  -5.2 °C 30.14in /  1020.5hPa Calm   3.0mph /  4.8km/h 9% 0.00in /  0mm 789.0 W/m2
13:42 89.1 °F /  31.7 °C 22.8 °F /  -5.1 °C 30.13in /  1020.2hPa North 2.9mph /  4.7km/h 5.0mph /  8km/h 9% 0.00in /  0mm 779.0 W/m2
13:49 89.2 °F /  31.8 °C 23.0 °F /  -5 °C 30.13in /  1020.2hPa WNW 0.9mph /  1.4km/h 4.0mph /  6.4km/h 9% 0.00in /  0mm 768.0 W/m2
13:55 89.2 °F /  31.8 °C 23.0 °F /  -5 °C 30.13in /  1020.2hPa Calm   6.0mph /  9.7km/h 9% 0.00in /  0mm 777.0 W/m2
14:01 89.4 °F /  31.9 °C 23.2 °F /  -4.9 °C 30.13in /  1020.2hPa NE 6.0mph /  9.7km/h 6.0mph /  9.7km/h 9% 0.00in /  0mm 789.0 W/m2
14:07 89.8 °F /  32.1 °C 23.4 °F /  -4.8 °C 30.12in /  1019.9hPa Calm   6.0mph /  9.7km/h 9% 0.00in /  0mm 789.0 W/m2
14:13 89.8 °F /  32.1 °C 23.4 °F /  -4.8 °C 30.12in /  1019.9hPa NE 2.0mph /  3.2km/h 4.0mph /  6.4km/h 9% 0.00in /  0mm 788.0 W/m2
14:19 89.8 °F /  32.1 °C 23.4 °F /  -4.8 °C 30.11in /  1019.5hPa West 0.9mph /  1.4km/h 7.0mph /  11.3km/h 9% 0.00in /  0mm 807.0 W/m2
14:25 90.1 °F /  32.3 °C 23.7 °F /  -4.6 °C 30.11in /  1019.5hPa WSW 6.9mph /  11.1km/h 7.0mph /  11.3km/h 9% 0.00in /  0mm 810.0 W/m2
14:32 89.8 °F /  32.1 °C 23.4 °F /  -4.8 °C 30.11in /  1019.5hPa WSW 0.9mph /  1.4km/h 5.0mph /  8km/h 9% 0.00in /  0mm 798.0 W/m2
14:38 89.8 °F /  32.1 °C 23.4 °F /  -4.8 °C 30.11in /  1019.5hPa ESE 2.0mph /  3.2km/h 3.0mph /  4.8km/h 9% 0.00in /  0mm 779.0 W/m2
14:44 90.1 °F /  32.3 °C 23.7 °F /  -4.6 °C 30.10in /  1019.2hPa SSE 2.9mph /  4.7km/h 4.0mph /  6.4km/h 9% 0.00in /  0mm 773.0 W/m2
14:51 90.1 °F /  32.3 °C 23.7 °F /  -4.6 °C 30.10in /  1019.2hPa SSE 8.1mph /  13km/h 10.0mph /  16.1km/h 9% 0.00in /  0mm 759.0 W/m2
14:57 89.8 °F /  32.1 °C 23.4 °F /  -4.8 °C 30.10in /  1019.2hPa ENE 2.0mph /  3.2km/h 3.0mph /  4.8km/h 9% 0.00in /  0mm 287.0 W/m2
15:03 89.2 °F /  31.8 °C 23.0 °F /  -5 °C 30.10in /  1019.2hPa Calm   7.0mph /  11.3km/h 9% 0.00in /  0mm 271.0 W/m2
15:09 89.1 °F /  31.7 °C 22.8 °F /  -5.1 °C 30.10in /  1019.2hPa SE 0.9mph /  1.4km/h 3.0mph /  4.8km/h 9% 0.00in /  0mm 199.0 W/m2
15:15 88.9 °F /  31.6 °C 22.8 °F /  -5.1 °C 30.10in /  1019.2hPa East 0.9mph /  1.4km/h 5.0mph /  8km/h 9% 0.00in /  0mm 325.0 W/m2
15:21 88.5 °F /  31.4 °C 22.5 °F /  -5.3 °C 30.10in /  1019.2hPa Calm   3.0mph /  4.8km/h 9% 0.00in /  0mm 290.0 W/m2
15:27 88.5 °F /  31.4 °C 22.5 °F /  -5.3 °C 30.10in /  1019.2hPa SSE 2.0mph /  3.2km/h 4.0mph /  6.4km/h 9% 0.00in /  0mm 200.0 W/m2
15:33 88.0 °F /  31.1 °C 22.1 °F /  -5.5 °C 30.10in /  1019.2hPa West 0.9mph /  1.4km/h 3.0mph /  4.8km/h 9% 0.00in /  0mm 221.0 W/m2
15:40 86.7 °F /  30.4 °C 21.2 °F /  -6 °C 30.09in /  1018.8hPa WSW 4.0mph /  6.4km/h 4.0mph /  6.4km/h 9% 0.00in /  0mm 190.0 W/m2
15:46 86.4 °F /  30.2 °C 20.8 °F /  -6.2 °C 30.09in /  1018.8hPa SW 2.0mph /  3.2km/h 3.0mph /  4.8km/h 9% 0.00in /  0mm 185.0 W/m2
15:52 85.8 °F /  29.9 °C 23.0 °F /  -5 °C 30.09in /  1018.8hPa NW 0.9mph /  1.4km/h 2.0mph /  3.2km/h 10% 0.00in /  0mm 171.0 W/m2
15:58 85.8 °F /  29.9 °C 20.5 °F /  -6.4 °C 30.09in /  1018.8hPa Calm   4.0mph /  6.4km/h 9% 0.00in /  0mm 178.0 W/m2
16:04 85.5 °F /  29.7 °C 22.6 °F /  -5.2 °C 30.09in /  1018.8hPa Calm   5.0mph /  8km/h 10% 0.00in /  0mm 171.0 W/m2
16:10 85.3 °F /  29.6 °C 20.1 °F /  -6.6 °C 30.09in /  1018.8hPa Calm     9% 0.00in /  0mm 195.0 W/m2
16:16 85.5 °F /  29.7 °C 22.6 °F /  -5.2 °C 30.09in /  1018.8hPa Calm   1.0mph /  1.6km/h 10% 0.00in /  0mm 473.0 W/m2
16:23 86.4 °F /  30.2 °C 20.8 °F /  -6.2 °C 30.09in /  1018.8hPa SW 0.9mph /  1.4km/h 3.0mph /  4.8km/h 9% 0.00in /  0mm 446.0 W/m2
16:29 86.9 °F /  30.5 °C 21.2 °F /  -6 °C 30.09in /  1018.8hPa WSW 2.0mph /  3.2km/h 5.0mph /  8km/h 9% 0.00in /  0mm 425.0 W/m2
16:35 87.3 °F /  30.7 °C 21.6 °F /  -5.8 °C 30.09in /  1018.8hPa Calm     9% 0.00in /  0mm 380.0 W/m2
16:41 87.6 °F /  30.9 °C 21.7 °F /  -5.7 °C 30.09in /  1018.8hPa Calm   3.0mph /  4.8km/h 9% 0.00in /  0mm 362.0 W/m2
16:47 88.2 °F /  31.2 °C 22.3 °F /  -5.4 °C 30.09in /  1018.8hPa NW 2.0mph /  3.2km/h 3.0mph /  4.8km/h 9% 0.00in /  0mm 116.0 W/m2
16:53 88.2 °F /  31.2 °C 22.3 °F /  -5.4 °C 30.09in /  1018.8hPa Calm     9% 0.00in /  0mm 81.0 W/m2
16:59 87.6 °F /  30.9 °C 21.7 °F /  -5.7 °C 30.09in /  1018.8hPa Calm     9% 0.00in /  0mm 67.0 W/m2
17:05 86.7 °F /  30.4 °C 21.2 °F /  -6 °C 30.09in /  1018.8hPa WSW 0.9mph /  1.4km/h 2.0mph /  3.2km/h 9% 0.00in /  0mm 54.0 W/m2
17:12 85.8 °F /  29.9 °C 20.5 °F /  -6.4 °C 30.09in /  1018.8hPa SSW 0.9mph /  1.4km/h 1.0mph /  1.6km/h 9% 0.00in /  0mm 53.0 W/m2
17:18 84.9 °F /  29.4 °C 22.3 °F /  -5.4 °C 30.09in /  1018.8hPa Calm   5.0mph /  8km/h 10% 0.00in /  0mm 54.0 W/m2
17:24 84.6 °F /  29.2 °C 21.9 °F /  -5.6 °C 30.09in /  1018.8hPa SE 2.0mph /  3.2km/h 5.0mph /  8km/h 10% 0.00in /  0mm 51.0 W/m2
17:30 84.0 °F /  28.9 °C 21.6 °F /  -5.8 °C 30.09in /  1018.8hPa SE 2.0mph /  3.2km/h 4.0mph /  6.4km/h 10% 0.00in /  0mm 54.0 W/m2
17:36 83.7 °F /  28.7 °C 21.4 °F /  -5.9 °C 30.09in /  1018.8hPa Calm   4.0mph /  6.4km/h 10% 0.00in /  0mm 51.0 W/m2
17:42 83.7 °F /  28.7 °C 23.5 °F /  -4.7 °C 30.09in /  1018.8hPa Calm     11% 0.00in /  0mm 69.0 W/m2
17:48 83.5 °F /  28.6 °C 21.2 °F /  -6 °C 30.09in /  1018.8hPa Calm   2.0mph /  3.2km/h 10% 0.00in /  0mm 72.0 W/m2
17:55 83.5 °F /  28.6 °C 23.4 °F /  -4.8 °C 30.09in /  1018.8hPa Calm   3.0mph /  4.8km/h 11% 0.00in /  0mm 63.0 W/m2
18:01 83.5 °F /  28.6 °C 23.4 °F /  -4.8 °C 30.09in /  1018.8hPa Calm   4.0mph /  6.4km/h 11% 0.00in /  0mm 72.0 W/m2
18:07 83.3 °F /  28.5 °C 23.4 °F /  -4.8 °C 30.09in /  1018.8hPa SE 2.0mph /  3.2km/h 3.0mph /  4.8km/h 11% 0.00in /  0mm 56.0 W/m2
18:13 83.1 °F /  28.4 °C 23.2 °F /  -4.9 °C 30.09in /  1018.8hPa SE 0.9mph /  1.4km/h 1.0mph /  1.6km/h 11% 0.00in /  0mm 46.0 W/m2
18:19 82.9 °F /  28.3 °C 23.0 °F /  -5 °C 30.10in /  1019.2hPa ESE 2.0mph /  3.2km/h 3.0mph /  4.8km/h 11% 0.00in /  0mm 33.0 W/m2
18:25 82.8 °F /  28.2 °C 22.8 °F /  -5.1 °C 30.10in /  1019.2hPa SSE 2.0mph /  3.2km/h 5.0mph /  8km/h 11% 0.00in /  0mm 21.0 W/m2
18:31 82.6 °F /  28.1 °C 22.8 °F /  -5.1 °C 30.10in /  1019.2hPa ESE 0.9mph /  1.4km/h 5.0mph /  8km/h 11% 0.00in /  0mm 12.0 W/m2
18:38 82.2 °F /  27.9 °C 22.5 °F /  -5.3 °C 30.10in /  1019.2hPa South 2.0mph /  3.2km/h 3.0mph /  4.8km/h 11% 0.00in /  0mm 5.0 W/m2
18:44 81.9 °F /  27.7 °C 22.3 °F /  -5.4 °C 30.10in /  1019.2hPa SE 2.9mph /  4.7km/h 3.0mph /  4.8km/h 11% 0.00in /  0mm 0.0 W/m2
18:50 81.3 °F /  27.4 °C 21.7 °F /  -5.7 °C 30.10in /  1019.2hPa SSE 2.9mph /  4.7km/h 8.0mph /  12.9km/h 11% 0.00in /  0mm 0.0 W/m2
18:56 81.1 °F /  27.3 °C 21.6 °F /  -5.8 °C 30.11in /  1019.5hPa Calm   6.0mph /  9.7km/h 11% 0.00in /  0mm 0.0 W/m2
19:02 80.8 °F /  27.1 °C 21.4 °F /  -5.9 °C 30.11in /  1019.5hPa SSE 2.0mph /  3.2km/h 4.0mph /  6.4km/h 11% 0.00in /  0mm 0.0 W/m2
19:08 80.4 °F /  26.9 °C 23.2 °F /  -4.9 °C 30.12in /  1019.9hPa Calm   4.0mph /  6.4km/h 12% 0.00in /  0mm 0.0 W/m2
19:14 80.2 °F /  26.8 °C 23.0 °F /  -5 °C 30.12in /  1019.9hPa South 2.0mph /  3.2km/h 3.0mph /  4.8km/h 12% 0.00in /  0mm 0.0 W/m2
19:20 79.9 °F /  26.6 °C 22.8 °F /  -5.1 °C 30.12in /  1019.9hPa Calm     12% 0.00in /  0mm 0.0 W/m2
19:26 79.5 °F /  26.4 °C 22.5 °F /  -5.3 °C 30.12in /  1019.9hPa Calm   2.0mph /  3.2km/h 12% 0.00in /  0mm 0.0 W/m2
19:33 79.0 °F /  26.1 °C 22.1 °F /  -5.5 °C 30.12in /  1019.9hPa SSW 0.9mph /  1.4km/h 1.0mph /  1.6km/h 12% 0.00in /  0mm 0.0 W/m2
19:39 78.6 °F /  25.9 °C 21.7 °F /  -5.7 °C 30.12in /  1019.9hPa Calm   3.0mph /  4.8km/h 12% 0.00in /  0mm 0.0 W/m2
19:45 78.1 °F /  25.6 °C 21.4 °F /  -5.9 °C 30.12in /  1019.9hPa WSW 0.9mph /  1.4km/h 2.0mph /  3.2km/h 12% 0.00in /  0mm 0.0 W/m2
19:51 77.7 °F /  25.4 °C 23.0 °F /  -5 °C 30.13in /  1020.2hPa Calm   3.0mph /  4.8km/h 13% 0.00in /  0mm 0.0 W/m2
19:57 77.4 °F /  25.2 °C 22.6 °F /  -5.2 °C 30.13in /  1020.2hPa Calm   1.0mph /  1.6km/h 13% 0.00in /  0mm 0.0 W/m2
20:03 77.2 °F /  25.1 °C 22.5 °F /  -5.3 °C 30.13in /  1020.2hPa Calm   2.0mph /  3.2km/h 13% 0.00in /  0mm 0.0 W/m2
20:09 76.8 °F /  24.9 °C 22.3 °F /  -5.4 °C 30.14in /  1020.5hPa Calm   3.0mph /  4.8km/h 13% 0.00in /  0mm 0.0 W/m2
20:16 76.6 °F /  24.8 °C 22.1 °F /  -5.5 °C 30.14in /  1020.5hPa Calm     13% 0.00in /  0mm 0.0 W/m2
20:22 76.3 °F /  24.6 °C 21.7 °F /  -5.7 °C 30.14in /  1020.5hPa Calm   2.0mph /  3.2km/h 13% 0.00in /  0mm 0.0 W/m2
20:28 75.9 °F /  24.4 °C 21.6 °F /  -5.8 °C 30.14in /  1020.5hPa Calm   4.0mph /  6.4km/h 13% 0.00in /  0mm 0.0 W/m2
20:34 75.7 °F /  24.3 °C 21.4 °F /  -5.9 °C 30.14in /  1020.5hPa Calm   1.0mph /  1.6km/h 13% 0.00in /  0mm 0.0 W/m2
20:42 75.9 °F /  24.4 °C 21.6 °F /  -5.8 °C 30.14in /  1020.5hPa SSE 2.0mph /  3.2km/h 7.0mph /  11.3km/h 13% 0.00in /  0mm 0.0 W/m2
20:48 76.3 °F /  24.6 °C 21.7 °F /  -5.7 °C 30.15in /  1020.9hPa ESE 4.9mph /  7.9km/h 10.0mph /  16.1km/h 13% 0.00in /  0mm 0.0 W/m2
20:54 76.8 °F /  24.9 °C 22.3 °F /  -5.4 °C 30.15in /  1020.9hPa SE 2.0mph /  3.2km/h 5.0mph /  8km/h 13% 0.00in /  0mm 0.0 W/m2
21:00 77.2 °F /  25.1 °C 22.5 °F /  -5.3 °C 30.16in /  1021.2hPa SSW 4.9mph /  7.9km/h 7.0mph /  11.3km/h 13% 0.00in /  0mm 0.0 W/m2
21:06 77.2 °F /  25.1 °C 20.7 °F /  -6.3 °C 30.16in /  1021.2hPa SSE 0.9mph /  1.4km/h 5.0mph /  8km/h 12% 0.00in /  0mm 0.0 W/m2
21:13 77.2 °F /  25.1 °C 22.5 °F /  -5.3 °C 30.16in /  1021.2hPa Calm   8.0mph /  12.9km/h 13% 0.00in /  0mm 0.0 W/m2
21:19 77.4 °F /  25.2 °C 20.8 °F /  -6.2 °C 30.16in /  1021.2hPa SSE 2.9mph /  4.7km/h 11.0mph /  17.7km/h 12% 0.00in /  0mm 0.0 W/m2
21:25 77.4 °F /  25.2 °C 20.8 °F /  -6.2 °C 30.16in /  1021.2hPa Calm   7.0mph /  11.3km/h 12% 0.00in /  0mm 0.0 W/m2
21:31 77.4 °F /  25.2 °C 20.8 °F /  -6.2 °C 30.17in /  1021.6hPa ESE 4.9mph /  7.9km/h 8.0mph /  12.9km/h 12% 0.00in /  0mm 0.0 W/m2
21:37 77.4 °F /  25.2 °C 20.8 °F /  -6.2 °C 30.17in /  1021.6hPa SE 2.0mph /  3.2km/h 9.0mph /  14.5km/h 12% 0.00in /  0mm 0.0 W/m2
21:43 77.4 °F /  25.2 °C 20.8 °F /  -6.2 °C 30.17in /  1021.6hPa East 6.9mph /  11.1km/h 10.0mph /  16.1km/h 12% 0.00in /  0mm 0.0 W/m2
21:49 77.4 °F /  25.2 °C 20.8 °F /  -6.2 °C 30.17in /  1021.6hPa SSE 8.1mph /  13km/h 9.0mph /  14.5km/h 12% 0.00in /  0mm 0.0 W/m2
21:55 77.4 °F /  25.2 °C 20.8 °F /  -6.2 °C 30.17in /  1021.6hPa Calm   11.0mph /  17.7km/h 12% 0.00in /  0mm 0.0 W/m2
22:01 77.2 °F /  25.1 °C 20.7 °F /  -6.3 °C 30.17in /  1021.6hPa Calm   7.0mph /  11.3km/h 12% 0.00in /  0mm 0.0 W/m2
22:08 77.0 °F /  25 °C 20.5 °F /  -6.4 °C 30.17in /  1021.6hPa SE 2.9mph /  4.7km/h 4.0mph /  6.4km/h 12% 0.00in /  0mm 0.0 W/m2
22:14 76.6 °F /  24.8 °C 20.3 °F /  -6.5 °C 30.17in /  1021.6hPa SE 0.9mph /  1.4km/h 4.0mph /  6.4km/h 12% 0.00in /  0mm 0.0 W/m2
22:20 76.3 °F /  24.6 °C 21.7 °F /  -5.7 °C 30.18in /  1021.9hPa Calm   1.0mph /  1.6km/h 13% 0.00in /  0mm 0.0 W/m2
22:26 75.9 °F /  24.4 °C 21.6 °F /  -5.8 °C 30.17in /  1021.6hPa SE 0.9mph /  1.4km/h 7.0mph /  11.3km/h 13% 0.00in /  0mm 0.0 W/m2
22:32 75.7 °F /  24.3 °C 21.4 °F /  -5.9 °C 30.17in /  1021.6hPa SE 0.9mph /  1.4km/h 5.0mph /  8km/h 13% 0.00in /  0mm 0.0 W/m2
22:38 75.4 °F /  24.1 °C 21.2 °F /  -6 °C 30.17in /  1021.6hPa Calm   4.0mph /  6.4km/h 13% 0.00in /  0mm 0.0 W/m2
22:44 75.0 °F /  23.9 °C 20.8 °F /  -6.2 °C 30.17in /  1021.6hPa Calm   2.0mph /  3.2km/h 13% 0.00in /  0mm 0.0 W/m2
22:50 74.7 °F /  23.7 °C 20.5 °F /  -6.4 °C 30.17in /  1021.6hPa Calm   2.0mph /  3.2km/h 13% 0.00in /  0mm 0.0 W/m2
22:57 74.5 °F /  23.6 °C 22.1 °F /  -5.5 °C 30.17in /  1021.6hPa Calm     14% 0.00in /  0mm 0.0 W/m2
23:03 73.9 °F /  23.3 °C 21.7 °F /  -5.7 °C 30.18in /  1021.9hPa Calm     14% 0.00in /  0mm 0.0 W/m2
23:09 73.6 °F /  23.1 °C 21.4 °F /  -5.9 °C 30.18in /  1021.9hPa Calm     14% 0.00in /  0mm 0.0 W/m2
23:15 73.0 °F /  22.8 °C 21.0 °F /  -6.1 °C 30.17in /  1021.6hPa Calm   2.0mph /  3.2km/h 14% 0.00in /  0mm 0.0 W/m2
23:21 72.7 °F /  22.6 °C 20.7 °F /  -6.3 °C 30.17in /  1021.6hPa Calm     14% 0.00in /  0mm 0.0 W/m2
23:27 72.3 °F /  22.4 °C 22.1 °F /  -5.5 °C 30.17in /  1021.6hPa Calm   1.0mph /  1.6km/h 15% 0.00in /  0mm 0.0 W/m2
23:33 72.0 °F /  22.2 °C 21.7 °F /  -5.7 °C 30.18in /  1021.9hPa Calm   2.0mph /  3.2km/h 15% 0.00in /  0mm 0.0 W/m2
23:40 72.0 °F /  22.2 °C 21.7 °F /  -5.7 °C 30.17in /  1021.6hPa Calm   5.0mph /  8km/h 15% 0.00in /  0mm 0.0 W/m2
23:46 72.1 °F /  22.3 °C 21.9 °F /  -5.6 °C 30.17in /  1021.6hPa Calm   4.0mph /  6.4km/h 15% 0.00in /  0mm 0.0 W/m2
23:52 72.7 °F /  22.6 °C 20.7 °F /  -6.3 °C 30.17in /  1021.6hPa ESE 2.0mph /  3.2km/h 4.0mph /  6.4km/h 14% 0.00in /  0mm 0.0 W/m2
23:58 73.2 °F /  22.9 °C 21.2 °F /  -6 °C 30.17in /  1021.6hPa SE 2.0mph /  3.2km/h 5.0mph /  8km/h 14% 0.00in /  0mm 0.0 W/m2
Olympia, Windhoek, Namibia
Compliments of Weather Underground - 3 mb